Time;durP1;ratioP1;P1;durP2;ratioP2;P2;SDS_P1;SDS_P2;PMS_P1;PMS_P2;Temp;Humidity;BMP_temperature;BMP_pressure;BME280_temperature;BME280_humidity;BME280_pressure;Samples;Min_cycle;Max_cycle;Signal;HPM_P1;HPM_P2
2021/07/18 00:04:10;;;;;;;3.03;1.48;;;17.60;99.90;;;;;;20452618;28;20048;-49
2021/07/18 00:14:12;;;;;;;4.65;1.17;;;17.60;99.90;;;;;;20449859;28;20077;-49
2021/07/18 00:24:13;;;;;;;2.75;1.15;;;17.40;99.90;;;;;;20455938;28;20581;-49
2021/07/18 00:34:14;;;;;;;1.90;1.20;;;17.30;99.90;;;;;;20449194;28;20043;-49
2021/07/18 00:44:16;;;;;;;4.22;1.33;;;17.40;99.90;;;;;;20462297;28;20098;-49
2021/07/18 00:54:17;;;;;;;4.80;1.27;;;17.30;99.90;;;;;;20452163;28;20066;-49
2021/07/18 01:04:19;;;;;;;2.63;1.50;;;17.20;99.90;;;;;;20443589;28;20039;-49
2021/07/18 01:14:20;;;;;;;4.47;1.55;;;17.10;99.90;;;;;;20446873;28;20047;-49
2021/07/18 01:24:22;;;;;;;6.95;1.70;;;17.00;99.90;;;;;;20449157;28;20071;-49
2021/07/18 01:34:24;;;;;;;3.55;1.23;;;16.90;99.90;;;;;;20446239;28;20046;-49
2021/07/18 01:44:25;;;;;;;3.47;1.58;;;17.00;99.90;;;;;;20442661;28;20095;-49
2021/07/18 01:54:27;;;;;;;4.68;1.70;;;17.10;99.90;;;;;;20447573;28;20355;-49
2021/07/18 02:04:28;;;;;;;3.60;1.48;;;16.90;99.90;;;;;;20444815;28;20440;-49
2021/07/18 02:14:31;;;;;;;3.45;1.48;;;16.80;99.90;;;;;;20447120;28;20755;-49
2021/07/18 02:24:33;;;;;;;2.83;1.92;;;16.80;99.90;;;;;;20448984;28;20054;-49
2021/07/18 02:44:37;;;;;;;2.70;1.13;;;16.70;99.90;;;;;;20651888;28;20230;-49
2021/07/18 02:54:38;;;;;;;3.13;1.02;;;16.70;99.90;;;;;;20662261;28;20046;-49
2021/07/18 03:04:40;;;;;;;2.85;1.45;;;16.70;99.90;;;;;;20667660;28;20504;-49
2021/07/18 03:14:41;;;;;;;3.67;1.38;;;16.60;99.90;;;;;;20670668;28;20489;-49
2021/07/18 03:24:42;;;;;;;3.88;1.85;;;16.50;99.90;;;;;;20672217;28;20121;-49
2021/07/18 03:34:43;;;;;;;4.20;2.30;;;16.40;99.90;;;;;;20666936;28;20049;-49
2021/07/18 03:44:44;;;;;;;2.45;1.35;;;16.50;99.90;;;;;;20676482;28;20124;-49
2021/07/18 03:54:46;;;;;;;5.60;1.50;;;16.40;99.90;;;;;;20674089;28;20045;-50
2021/07/18 04:04:47;;;;;;;3.63;1.30;;;16.40;99.90;;;;;;20648848;28;20108;-49
2021/07/18 04:14:48;;;;;;;5.57;1.50;;;16.40;99.90;;;;;;20673881;28;20073;-49
2021/07/18 04:24:49;;;;;;;5.35;1.92;;;16.50;99.90;;;;;;20673449;28;20451;-49
2021/07/18 04:34:50;;;;;;;3.58;1.73;;;16.50;99.90;;;;;;20670093;28;20046;-49
2021/07/18 04:44:51;;;;;;;4.90;1.55;;;16.50;99.90;;;;;;20664370;28;20056;-49
2021/07/18 04:54:52;;;;;;;2.63;1.40;;;16.50;99.90;;;;;;20680416;28;20034;-49
2021/07/18 05:04:54;;;;;;;3.45;1.55;;;16.80;99.90;;;;;;20657824;28;20046;-49
2021/07/18 05:14:55;;;;;;;3.67;1.67;;;17.60;99.90;;;;;;20658835;28;20064;-49
2021/07/18 05:24:56;;;;;;;6.05;1.98;;;17.50;99.90;;;;;;20653236;28;20054;-50
2021/07/18 05:34:57;;;;;;;4.85;1.73;;;17.70;99.90;;;;;;20651107;28;20062;-50
2021/07/18 05:44:58;;;;;;;6.78;1.63;;;18.00;99.90;;;;;;20643610;28;20051;-50
2021/07/18 05:55:00;;;;;;;3.08;1.80;;;18.20;99.90;;;;;;20651922;28;20226;-51
2021/07/18 06:05:02;;;;;;;5.07;2.88;;;18.40;99.90;;;;;;20642331;28;20171;-51
2021/07/18 06:15:05;;;;;;;5.13;2.53;;;18.70;99.90;;;;;;20650344;28;20042;-51
2021/07/18 06:25:11;;;;;;;7.25;2.70;;;19.30;99.90;;;;;;20725850;28;20511;-51
2021/07/18 06:35:13;;;;;;;2.85;1.20;;;19.30;99.90;;;;;;20738401;28;20062;-51
2021/07/18 06:45:14;;;;;;;3.40;1.55;;;19.40;99.90;;;;;;20743613;28;20045;-51
2021/07/18 06:55:16;;;;;;;4.43;1.75;;;19.70;99.90;;;;;;20765298;28;20048;-52
2021/07/18 07:05:18;;;;;;;2.97;1.20;;;19.90;99.90;;;;;;20702409;28;20099;-51
2021/07/18 07:15:19;;;;;;;4.05;1.17;;;20.30;99.90;;;;;;20729738;28;20048;-51
2021/07/18 07:25:20;;;;;;;3.13;0.93;;;20.30;99.90;;;;;;20728127;28;20072;-51
2021/07/18 07:35:22;;;;;;;2.03;0.90;;;20.60;99.90;;;;;;20713063;28;20065;-51
2021/07/18 07:45:24;;;;;;;3.85;1.45;;;20.80;99.90;;;;;;20738162;28;20042;-51
2021/07/18 07:55:26;;;;;;;3.67;1.35;;;21.20;99.90;;;;;;20729129;28;20407;-51
2021/07/18 08:05:29;;;;;;;1.42;0.60;;;21.40;99.90;;;;;;20703117;28;20466;-51
2021/07/18 08:15:32;;;;;;;3.03;0.90;;;21.70;99.90;;;;;;20726511;28;20091;-50
2021/07/18 08:25:33;;;;;;;1.85;0.80;;;22.30;99.90;;;;;;20715776;28;20041;-52
2021/07/18 08:35:35;;;;;;;1.55;0.70;;;22.60;99.90;;;;;;20713090;28;20057;-51
2021/07/18 08:45:37;;;;;;;1.27;0.50;;;23.30;99.90;;;;;;20722864;28;20033;-51
2021/07/18 08:55:40;;;;;;;3.88;0.50;;;23.30;99.90;;;;;;20725332;28;20191;-51
2021/07/18 09:05:41;;;;;;;1.40;0.80;;;23.70;99.90;;;;;;20723006;28;20038;-51
2021/07/18 09:15:49;;;;;;;1.05;0.43;;;24.00;99.90;;;;;;20721641;28;20057;-51
2021/07/18 09:25:52;;;;;;;3.75;0.50;;;24.50;99.90;;;;;;20701788;28;20099;-51
2021/07/18 09:36:12;;;;;;;0.95;0.30;;;24.70;99.90;;;;;;20685220;28;20084;-49
2021/07/18 09:46:14;;;;;;;1.65;0.50;;;24.80;99.90;;;;;;20714633;28;20053;-49
2021/07/18 09:56:20;;;;;;;6.00;0.47;;;25.20;99.90;;;;;;20736223;28;20095;-49
2021/07/18 10:06:26;;;;;;;0.93;0.40;;;25.60;99.90;;;;;;20733016;28;20432;-49
2021/07/18 10:16:32;;;;;;;1.50;0.82;;;26.00;99.90;;;;;;20740912;28;20034;-49
2021/07/18 10:26:33;;;;;;;2.00;0.80;;;25.80;99.90;;;;;;20743030;28;20177;-49
2021/07/18 10:36:35;;;;;;;2.55;1.00;;;26.40;99.90;;;;;;20761327;28;20042;-49
2021/07/18 10:46:42;;;;;;;1.33;0.40;;;26.60;99.90;;;;;;20749042;28;20564;-49
2021/07/18 10:56:47;;;;;;;;;;;26.80;99.90;;;;;;20756073;28;20052;-49
2021/07/18 11:06:48;;;;;;;1.23;0.60;;;27.20;99.90;;;;;;20687282;28;20020;-49
2021/07/18 11:17:02;;;;;;;1.05;0.35;;;27.30;99.90;;;;;;20700356;28;20493;-49
2021/07/18 11:27:24;;;;;;;1.42;0.57;;;27.70;99.90;;;;;;20727262;28;20033;-49
2021/07/18 11:37:27;;;;;;;1.98;0.60;;;27.50;99.90;;;;;;20719741;28;20140;-49
2021/07/18 11:47:28;;;;;;;1.23;0.40;;;28.10;99.90;;;;;;20733884;28;20564;-49
2021/07/18 11:57:30;;;;;;;0.93;0.22;;;27.90;99.90;;;;;;20725739;28;20420;-49
2021/07/18 12:07:31;;;;;;;1.38;0.50;;;28.10;99.90;;;;;;20727122;28;20052;-49
2021/07/18 12:17:32;;;;;;;1.58;0.60;;;28.10;99.90;;;;;;20732267;28;20049;-49
2021/07/18 12:27:35;;;;;;;1.17;0.57;;;28.40;99.90;;;;;;20721957;28;20120;-49
2021/07/18 12:37:36;;;;;;;5.38;1.17;;;28.40;99.90;;;;;;20733162;28;20127;-49
2021/07/18 12:47:47;;;;;;;1.52;0.50;;;28.60;99.90;;;;;;20730086;28;20026;-49
2021/07/18 12:57:49;;;;;;;1.55;0.70;;;27.90;99.90;;;;;;20730484;28;20112;-48
2021/07/18 13:07:50;;;;;;;2.33;0.77;;;28.30;99.90;;;;;;20705929;28;20124;-49
2021/07/18 13:17:55;;;;;;;2.00;1.10;;;28.70;99.90;;;;;;20726990;28;20481;-49
2021/07/18 13:27:59;;;;;;;1.70;0.80;;;27.90;99.90;;;;;;20734028;28;20041;-48
2021/07/18 13:38:00;;;;;;;1.60;0.77;;;28.50;99.90;;;;;;20722557;28;20052;-49
2021/07/18 13:48:01;;;;;;;1.48;0.63;;;28.50;99.90;;;;;;20708949;28;20125;-49
2021/07/18 13:58:04;;;;;;;1.52;0.80;;;27.90;99.90;;;;;;20700856;28;20034;-49
2021/07/18 14:08:08;;;;;;;1.35;0.70;;;27.50;99.90;;;;;;20727592;28;20408;-49
2021/07/18 14:18:09;;;;;;;1.33;0.55;;;27.30;99.90;;;;;;20727448;28;20493;-49
2021/07/18 14:28:12;;;;;;;1.98;0.75;;;27.30;99.90;;;;;;20746004;28;20034;-49
2021/07/18 14:38:13;;;;;;;2.28;0.88;;;27.20;99.90;;;;;;20755124;28;20088;-49
2021/07/18 14:48:15;;;;;;;2.00;1.00;;;26.60;99.90;;;;;;20746549;28;20091;-47
2021/07/18 14:58:16;;;;;;;1.45;0.95;;;26.70;99.90;;;;;;20744212;28;20038;-47
2021/07/18 15:08:17;;;;;;;1.75;1.00;;;26.50;99.90;;;;;;20751663;28;20052;-48
2021/07/18 15:18:18;;;;;;;2.40;0.75;;;26.60;99.90;;;;;;20748283;28;20049;-49
2021/07/18 15:28:19;;;;;;;2.03;0.85;;;26.40;99.90;;;;;;20734633;28;20030;-48
2021/07/18 15:38:20;;;;;;;2.78;0.75;;;26.40;99.90;;;;;;20741872;28;20115;-48
2021/07/18 15:48:21;;;;;;;2.83;0.90;;;26.10;99.90;;;;;;20726586;28;20140;-48
2021/07/18 15:58:23;;;;;;;2.55;0.95;;;25.60;99.90;;;;;;20716190;28;20037;-48
2021/07/18 16:08:24;;;;;;;2.47;0.90;;;25.20;99.90;;;;;;20708627;28;20053;-48
2021/07/18 16:18:25;;;;;;;2.15;1.02;;;25.00;99.90;;;;;;20715491;28;20050;-48
2021/07/18 16:28:28;;;;;;;2.88;1.20;;;24.90;99.90;;;;;;20718126;28;20243;-48
2021/07/18 16:38:31;;;;;;;5.68;1.08;;;24.90;99.90;;;;;;20721982;28;20037;-48
2021/07/18 16:48:33;;;;;;;2.55;0.70;;;24.70;99.90;;;;;;20718440;28;20046;-48
2021/07/18 16:58:34;;;;;;;1.85;0.68;;;24.50;99.90;;;;;;20723557;28;20052;-48
2021/07/18 17:08:36;;;;;;;2.42;0.88;;;24.40;99.90;;;;;;20723045;28;20050;-48
2021/07/18 17:18:37;;;;;;;2.22;0.85;;;24.20;99.90;;;;;;20725027;28;20033;-48
2021/07/18 17:28:38;;;;;;;1.50;0.50;;;24.10;99.90;;;;;;20722332;28;20044;-48
2021/07/18 17:38:42;;;;;;;3.63;1.00;;;23.90;99.90;;;;;;20725955;28;20113;-48
2021/07/18 17:48:43;;;;;;;1.95;0.80;;;23.90;99.90;;;;;;20730377;28;20041;-48
2021/07/18 17:58:44;;;;;;;0.98;0.50;;;23.70;99.90;;;;;;20728379;28;20037;-48
2021/07/18 18:08:46;;;;;;;2.60;0.77;;;23.20;99.90;;;;;;20709906;28;20038;-50
2021/07/18 18:18:47;;;;;;;2.72;1.00;;;23.10;99.90;;;;;;20740255;28;20038;-48
2021/07/18 18:28:48;;;;;;;5.95;1.08;;;22.80;99.90;;;;;;20731655;28;20120;-48
2021/07/18 18:38:49;;;;;;;2.38;0.80;;;22.40;99.90;;;;;;20728223;28;20045;-48
2021/07/18 18:48:50;;;;;;;1.60;0.55;;;22.30;99.90;;;;;;20723662;28;20048;-50
2021/07/18 18:58:51;;;;;;;0.90;0.40;;;22.00;99.90;;;;;;20726884;28;20184;-50
2021/07/18 19:08:53;;;;;;;1.65;0.82;;;21.70;99.90;;;;;;20728692;28;20061;-50
2021/07/18 19:18:54;;;;;;;3.08;0.90;;;21.60;99.90;;;;;;20738440;28;20179;-50
2021/07/18 19:28:55;;;;;;;1.50;0.70;;;21.20;99.90;;;;;;20738073;28;20030;-50
2021/07/18 19:38:56;;;;;;;1.85;0.65;;;21.10;99.90;;;;;;20730995;28;20380;-50
2021/07/18 19:48:57;;;;;;;1.05;0.40;;;20.90;99.90;;;;;;20704635;28;20049;-50
2021/07/18 19:58:58;;;;;;;3.15;0.82;;;20.60;99.90;;;;;;20708668;28;20048;-51
2021/07/18 20:09:00;;;;;;;1.75;0.75;;;20.60;99.90;;;;;;20732177;28;20039;-51
2021/07/18 20:19:02;;;;;;;2.45;0.47;;;20.50;99.90;;;;;;20733215;28;20212;-50
2021/07/18 20:29:04;;;;;;;2.90;0.77;;;20.40;99.90;;;;;;20718880;28;20517;-50
2021/07/18 20:39:05;;;;;;;4.00;1.02;;;20.20;99.90;;;;;;20743554;28;20045;-50
2021/07/18 20:49:06;;;;;;;1.25;0.70;;;20.20;99.90;;;;;;20733492;28;20029;-50
2021/07/18 20:59:08;;;;;;;1.95;0.60;;;20.10;99.90;;;;;;20735611;28;20034;-49
2021/07/18 21:09:09;;;;;;;1.55;0.57;;;20.00;99.90;;;;;;20741125;28;20351;-50
2021/07/18 21:19:10;;;;;;;1.63;0.50;;;19.90;99.90;;;;;;20745278;28;20123;-50
2021/07/18 21:29:11;;;;;;;2.92;0.60;;;19.80;99.90;;;;;;20753423;28;20139;-51
2021/07/18 21:39:12;;;;;;;3.25;1.27;;;19.60;99.90;;;;;;20751197;28;20053;-50
2021/07/18 21:49:14;;;;;;;2.08;0.73;;;19.50;99.90;;;;;;20748757;28;20073;-51
2021/07/18 21:59:15;;;;;;;2.10;0.80;;;19.40;99.90;;;;;;20740221;28;20041;-50
2021/07/18 22:09:16;;;;;;;1.63;0.73;;;19.20;99.90;;;;;;20747992;28;20033;-49
2021/07/18 22:19:17;;;;;;;1.95;1.10;;;19.10;99.90;;;;;;20731730;28;20052;-49
2021/07/18 22:29:18;;;;;;;1.58;0.60;;;19.10;99.90;;;;;;20750652;28;20133;-50
2021/07/18 22:39:19;;;;;;;1.73;0.75;;;19.10;99.90;;;;;;20752935;28;20126;-50
2021/07/18 22:49:21;;;;;;;1.60;0.55;;;18.90;99.90;;;;;;20751015;28;20041;-50
2021/07/18 22:59:22;;;;;;;1.63;0.47;;;18.80;99.90;;;;;;20740147;28;20045;-49
2021/07/18 23:09:25;;;;;;;1.60;0.63;;;18.70;99.90;;;;;;20751339;28;20488;-49
2021/07/18 23:19:26;;;;;;;1.17;0.57;;;18.60;99.90;;;;;;20748932;28;21243;-49
2021/07/18 23:29:27;;;;;;;1.38;0.52;;;18.60;99.90;;;;;;20761396;28;20213;-49
2021/07/18 23:39:31;;;;;;;2.63;0.75;;;18.20;99.90;;;;;;20753920;28;20045;-49
2021/07/18 23:49:33;;;;;;;2.58;0.73;;;18.20;99.90;;;;;;20750034;28;20913;-49
2021/07/18 23:59:35;;;;;;;1.02;0.45;;;18.20;99.90;;;;;;20762539;28;20048;-49
